Time;durP1;ratioP1;P1;durP2;ratioP2;P2;SDS_P1;SDS_P2;PMS_P1;PMS_P2;Temp;Humidity;BMP_temperature;BMP_pressure;BME280_temperature;BME280_humidity;BME280_pressure;Samples;Min_cycle;Max_cycle;Signal;HPM_P1;HPM_P2
2023/04/11 00:00:11;;;;;;;8.82;2.78;;;;;;;;;;5097081;28;20044;-73
2023/04/11 00:02:39;;;;;;;9.27;2.90;;;;;;;;;;5095629;28;20493;-73
2023/04/11 00:05:06;;;;;;;6.07;2.72;;;;;;;;;;5096929;28;20044;-73
2023/04/11 00:07:32;;;;;;;8.80;3.25;;;;;;;;;;5096907;28;20106;-73
2023/04/11 00:09:58;;;;;;;7.43;2.65;;;;;;;;;;5096837;28;20090;-73
2023/04/11 00:12:27;;;;;;;8.30;3.10;;;;;;;;;;5094816;28;20047;-73
2023/04/11 00:14:54;;;;;;;16.75;4.68;;;;;;;;;;5075471;28;20043;-73
2023/04/11 00:17:20;;;;;;;14.13;4.38;;;;;;;;;;5075675;28;20065;-73
2023/04/11 00:19:47;;;;;;;13.75;4.03;;;;;;;;;;5074974;28;20040;-73
2023/04/11 00:22:16;;;;;;;10.20;3.38;;;;;;;;;;5074985;28;20047;-73
2023/04/11 00:24:42;;;;;;;6.78;2.60;;;;;;;;;;5075361;28;20052;-73
2023/04/11 00:27:08;;;;;;;8.63;2.90;;;;;;;;;;5083839;28;20498;-73
2023/04/11 00:29:35;;;;;;;8.82;2.80;;;;;;;;;;5095333;28;20063;-73
2023/04/11 00:32:02;;;;;;;10.20;2.60;;;;;;;;;;5095075;28;20051;-73
2023/04/11 00:34:28;;;;;;;10.55;3.08;;;;;;;;;;5095007;28;20076;-73
2023/04/11 00:36:54;;;;;;;12.05;3.25;;;;;;;;;;5095294;28;20048;-73
2023/04/11 00:39:21;;;;;;;10.18;2.67;;;;;;;;;;5095133;28;20048;-73
2023/04/11 00:41:48;;;;;;;6.80;2.50;;;;;;;;;;5093685;28;20044;-73
2023/04/11 00:44:14;;;;;;;12.07;2.78;;;;;;;;;;5090711;28;20036;-73
2023/04/11 00:46:42;;;;;;;8.90;2.10;;;;;;;;;;5074810;28;20462;-73
2023/04/11 00:49:08;;;;;;;5.05;1.75;;;;;;;;;;5074894;28;20040;-73
2023/04/11 00:51:34;;;;;;;3.95;1.83;;;;;;;;;;5074564;28;20277;-73
2023/04/11 00:54:00;;;;;;;4.68;1.75;;;;;;;;;;5074722;28;20069;-73
2023/04/11 00:56:27;;;;;;;4.35;1.75;;;;;;;;;;5080456;28;20502;-73
2023/04/11 00:58:53;;;;;;;6.55;2.05;;;;;;;;;;5094963;28;20084;-73
2023/04/11 01:01:22;;;;;;;4.78;1.58;;;;;;;;;;5094788;28;20050;-73
2023/04/11 01:03:48;;;;;;;4.65;1.80;;;;;;;;;;5094514;28;20537;-73
2023/04/11 01:06:16;;;;;;;3.40;1.73;;;;;;;;;;5094470;28;20530;-73
2023/04/11 01:08:43;;;;;;;6.13;2.35;;;;;;;;;;5094909;28;20051;-73
2023/04/11 01:11:11;;;;;;;5.97;1.70;;;;;;;;;;5092981;28;20210;-73
2023/04/11 01:13:39;;;;;;;7.70;1.92;;;;;;;;;;5081451;28;20410;-73
2023/04/11 01:16:06;;;;;;;6.50;1.90;;;;;;;;;;5055760;28;1128697;-74
2023/04/11 01:18:32;;;;;;;4.72;1.85;;;;;;;;;;5095592;28;20094;-73
2023/04/11 01:20:59;;;;;;;6.10;2.08;;;;;;;;;;5095498;28;20043;-73
2023/04/11 01:23:25;;;;;;;3.95;2.20;;;;;;;;;;5095238;28;20546;-73
2023/04/11 01:25:52;;;;;;;5.00;1.80;;;;;;;;;;5094585;28;20044;-73
2023/04/11 01:28:21;;;;;;;5.78;1.90;;;;;;;;;;5095595;28;20119;-73
2023/04/11 01:30:47;;;;;;;4.05;2.00;;;;;;;;;;5095280;28;20169;-73
2023/04/11 01:33:14;;;;;;;9.15;2.03;;;;;;;;;;5095618;28;20062;-74
2023/04/11 01:35:40;;;;;;;5.60;1.90;;;;;;;;;;5095014;28;20375;-73
2023/04/11 01:38:07;;;;;;;5.72;2.15;;;;;;;;;;5095169;28;20363;-73
2023/04/11 01:40:33;;;;;;;5.10;2.00;;;;;;;;;;5094099;28;20119;-73
2023/04/11 01:43:00;;;;;;;7.93;2.03;;;;;;;;;;5085159;28;20490;-73
2023/04/11 01:45:27;;;;;;;6.47;2.05;;;;;;;;;;5074004;28;20063;-73
2023/04/11 01:47:53;;;;;;;5.38;1.88;;;;;;;;;;5074954;28;20044;-73
2023/04/11 01:50:23;;;;;;;4.53;1.80;;;;;;;;;;5074953;28;20063;-73
2023/04/11 01:52:49;;;;;;;8.75;2.90;;;;;;;;;;5077561;28;20040;-74
2023/04/11 01:55:16;;;;;;;7.18;2.50;;;;;;;;;;5095265;28;20117;-74
2023/04/11 01:57:42;;;;;;;8.68;2.72;;;;;;;;;;5095041;28;20048;-74
2023/04/11 02:00:12;;;;;;;9.65;2.60;;;;;;;;;;5093576;28;20135;-74
2023/04/11 02:02:38;;;;;;;6.15;1.75;;;;;;;;;;5094676;28;20131;-74
2023/04/11 02:05:05;;;;;;;4.35;1.90;;;;;;;;;;5094393;28;20040;-74
2023/04/11 02:07:31;;;;;;;6.93;1.70;;;;;;;;;;5074904;28;20494;-73
2023/04/11 02:09:57;;;;;;;5.65;2.00;;;;;;;;;;5074850;28;20051;-74
2023/04/11 02:12:23;;;;;;;10.15;2.22;;;;;;;;;;5075110;28;20098;-74
2023/04/11 02:14:49;;;;;;;4.68;1.95;;;;;;;;;;5074285;28;20048;-74
2023/04/11 02:17:17;;;;;;;5.53;2.20;;;;;;;;;;5074389;28;20044;-74
2023/04/11 02:19:44;;;;;;;4.95;2.10;;;;;;;;;;5074144;28;20098;-74
2023/04/11 02:22:13;;;;;;;4.65;2.08;;;;;;;;;;5074200;28;20049;-74
2023/04/11 02:24:39;;;;;;;7.70;2.20;;;;;;;;;;5091358;28;20127;-74
2023/04/11 02:27:06;;;;;;;8.85;2.35;;;;;;;;;;5093098;28;20044;-74
2023/04/11 02:29:32;;;;;;;10.88;2.38;;;;;;;;;;5093044;28;20056;-74
2023/04/11 02:31:58;;;;;;;5.50;2.90;;;;;;;;;;5094088;28;20040;-74
2023/04/11 02:34:25;;;;;;;10.63;2.33;;;;;;;;;;5094601;28;20496;-74
2023/04/11 02:36:51;;;;;;;5.30;2.00;;;;;;;;;;5094310;28;20138;-73
2023/04/11 02:39:18;;;;;;;6.55;2.40;;;;;;;;;;5092856;28;20036;-74
2023/04/11 02:41:44;;;;;;;12.00;2.60;;;;;;;;;;5077392;28;20094;-73
2023/04/11 02:44:11;;;;;;;7.28;2.47;;;;;;;;;;5073605;28;20090;-73
2023/04/11 02:46:37;;;;;;;5.38;2.15;;;;;;;;;;5073753;28;20097;-74
2023/04/11 02:49:04;;;;;;;10.27;2.80;;;;;;;;;;5074231;28;20076;-74
2023/04/11 02:51:30;;;;;;;5.80;2.40;;;;;;;;;;5073773;28;20475;-72
2023/04/11 02:53:56;;;;;;;8.35;2.95;;;;;;;;;;5088750;28;20085;-73
2023/04/11 02:56:22;;;;;;;7.88;2.72;;;;;;;;;;5093650;28;20051;-73
2023/04/11 02:58:48;;;;;;;9.15;3.42;;;;;;;;;;5092423;28;20051;-73
2023/04/11 03:01:20;;;;;;;9.40;3.25;;;;;;;;;;5093549;28;20398;-73
2023/04/11 03:03:47;;;;;;;7.70;2.47;;;;;;;;;;5094050;28;20393;-73
2023/04/11 03:06:13;;;;;;;5.68;2.22;;;;;;;;;;5084986;28;20425;-73
2023/04/11 03:08:39;;;;;;;8.85;2.55;;;;;;;;;;5073835;28;20487;-73
2023/04/11 03:11:05;;;;;;;6.32;2.40;;;;;;;;;;5073313;28;20486;-73
2023/04/11 03:13:31;;;;;;;11.55;2.70;;;;;;;;;;5077186;28;20497;-73
2023/04/11 03:15:57;;;;;;;8.82;2.40;;;;;;;;;;5093469;28;20040;-73
2023/04/11 03:18:23;;;;;;;6.15;2.50;;;;;;;;;;5093868;28;20056;-73
2023/04/11 03:20:51;;;;;;;8.57;2.72;;;;;;;;;;5093888;28;20043;-73
2023/04/11 03:23:17;;;;;;;9.35;2.67;;;;;;;;;;5077996;28;20041;-73
2023/04/11 03:25:43;;;;;;;8.68;2.95;;;;;;;;;;5073030;28;20041;-73
2023/04/11 03:28:09;;;;;;;8.57;2.90;;;;;;;;;;5073457;28;20068;-73
2023/04/11 03:30:39;;;;;;;7.95;3.05;;;;;;;;;;5073403;28;20541;-73
2023/04/11 03:33:05;;;;;;;7.25;2.67;;;;;;;;;;5073296;28;20053;-73
2023/04/11 03:35:31;;;;;;;6.53;2.85;;;;;;;;;;5073292;28;20455;-73
2023/04/11 03:37:57;;;;;;;8.75;2.67;;;;;;;;;;5087207;28;20063;-73
2023/04/11 03:40:23;;;;;;;8.30;2.55;;;;;;;;;;5093301;28;20382;-73
2023/04/11 03:42:50;;;;;;;6.78;3.03;;;;;;;;;;5093574;28;20044;-73
2023/04/11 03:45:16;;;;;;;8.05;2.53;;;;;;;;;;5093793;28;20084;-73
2023/04/11 03:47:42;;;;;;;8.48;2.60;;;;;;;;;;5092573;28;20114;-73
2023/04/11 03:50:09;;;;;;;7.80;2.60;;;;;;;;;;5092270;28;20079;-73
2023/04/11 03:52:35;;;;;;;6.40;2.60;;;;;;;;;;5087881;28;20482;-73
2023/04/11 03:55:05;;;;;;;7.43;2.80;;;;;;;;;;5075859;28;20040;-73
2023/04/11 03:57:31;;;;;;;8.18;3.13;;;;;;;;;;5072957;28;20120;-73
2023/04/11 03:59:57;;;;;;;8.30;3.13;;;;;;;;;;5073445;28;20123;-73
2023/04/11 04:02:23;;;;;;;8.63;3.20;;;;;;;;;;5073220;28;20131;-73
2023/04/11 04:04:53;;;;;;;12.18;3.60;;;;;;;;;;5072906;28;20056;-73
2023/04/11 04:07:22;;;;;;;8.70;3.10;;;;;;;;;;5072691;28;20099;-73
2023/04/11 04:09:48;;;;;;;8.40;2.90;;;;;;;;;;5079419;28;20040;-73
2023/04/11 04:12:16;;;;;;;11.25;3.40;;;;;;;;;;5096756;28;20044;-71
2023/04/11 04:14:42;;;;;;;11.95;2.95;;;;;;;;;;5096806;28;20098;-71
2023/04/11 04:17:09;;;;;;;10.13;3.53;;;;;;;;;;5096842;28;20482;-71
2023/04/11 04:19:35;;;;;;;10.65;3.05;;;;;;;;;;5081515;28;20428;-72
2023/04/11 04:22:01;;;;;;;8.88;3.05;;;;;;;;;;5087868;28;20040;-72
2023/04/11 04:24:28;;;;;;;13.70;4.03;;;;;;;;;;5096877;28;20040;-72
2023/04/11 04:26:59;;;;;;;6.60;2.90;;;;;;;;;;5096682;28;20040;-72
2023/04/11 04:29:32;;;;;;;10.50;3.10;;;;;;;;;;5096679;28;20421;-72
2023/04/11 04:32:00;;;;;;;10.63;4.10;;;;;;;;;;5097054;28;20172;-72
2023/04/11 04:34:28;;;;;;;10.27;3.55;;;;;;;;;;5096238;28;20040;-72
2023/04/11 04:36:58;;;;;;;15.13;3.00;;;;;;;;;;5095436;28;20040;-72
2023/04/11 04:39:24;;;;;;;10.15;3.38;;;;;;;;;;5096373;28;20048;-73
2023/04/11 04:41:57;;;;;;;9.75;3.17;;;;;;;;;;5096610;28;20044;-73
2023/04/11 04:44:26;;;;;;;13.23;3.50;;;;;;;;;;5096412;28;20072;-73
2023/04/11 04:46:55;;;;;;;10.45;3.30;;;;;;;;;;5095728;28;20040;-73
2023/04/11 04:49:21;;;;;;;13.50;3.47;;;;;;;;;;5096397;28;20048;-73
2023/04/11 04:51:47;;;;;;;10.52;2.97;;;;;;;;;;5095415;28;20051;-73
2023/04/11 04:54:18;;;;;;;12.90;3.50;;;;;;;;;;5095969;28;20553;-73
2023/04/11 04:56:44;;;;;;;10.50;3.85;;;;;;;;;;5096254;28;20044;-73
2023/04/11 04:59:13;;;;;;;9.68;3.67;;;;;;;;;;5095919;28;20048;-73
2023/04/11 05:01:39;;;;;;;12.10;3.60;;;;;;;;;;5095987;28;20046;-73
2023/04/11 05:04:05;;;;;;;7.97;3.30;;;;;;;;;;5095708;28;20482;-73
2023/04/11 05:06:31;;;;;;;11.45;3.58;;;;;;;;;;5094708;28;20051;-73
2023/04/11 05:08:59;;;;;;;11.52;3.47;;;;;;;;;;5095915;28;20475;-73
2023/04/11 05:11:25;;;;;;;11.90;3.58;;;;;;;;;;5095945;28;20093;-73
2023/04/11 05:13:51;;;;;;;9.77;3.80;;;;;;;;;;5095911;28;20101;-74
2023/04/11 05:16:18;;;;;;;8.07;2.95;;;;;;;;;;5095307;28;20051;-73
2023/04/11 05:18:44;;;;;;;6.18;3.25;;;;;;;;;;5095428;28;20059;-73
2023/04/11 05:21:10;;;;;;;8.70;3.42;;;;;;;;;;5093501;28;20470;-73
2023/04/11 05:23:36;;;;;;;9.55;3.70;;;;;;;;;;5095441;28;20386;-71
2023/04/11 05:26:03;;;;;;;14.65;3.10;;;;;;;;;;5095858;28;20044;-72
2023/04/11 05:28:30;;;;;;;6.97;2.50;;;;;;;;;;5095342;28;20044;-72
2023/04/11 05:30:56;;;;;;;3.92;1.80;;;;;;;;;;5094269;28;20052;-73
2023/04/11 05:33:23;;;;;;;7.05;1.85;;;;;;;;;;5094793;28;20051;-72
2023/04/11 05:35:50;;;;;;;4.15;1.80;;;;;;;;;;5094242;28;20063;-72
2023/04/11 05:38:16;;;;;;;7.05;2.80;;;;;;;;;;5095531;28;20130;-72
2023/04/11 05:40:42;;;;;;;10.25;2.08;;;;;;;;;;5095530;28;20144;-72
2023/04/11 05:43:12;;;;;;;6.22;2.22;;;;;;;;;;5095225;28;20119;-72
2023/04/11 05:45:38;;;;;;;8.30;2.60;;;;;;;;;;5081674;28;20051;-74
2023/04/11 05:48:08;;;;;;;5.57;2.08;;;;;;;;;;5094706;28;20544;-72
2023/04/11 05:50:35;;;;;;;8.05;2.53;;;;;;;;;;5095302;28;20051;-73
2023/04/11 05:53:01;;;;;;;9.02;2.55;;;;;;;;;;5090637;28;20067;-72
2023/04/11 05:55:27;;;;;;;8.85;2.92;;;;;;;;;;5087187;28;20047;-72
2023/04/11 05:57:53;;;;;;;15.48;3.28;;;;;;;;;;5076052;28;20045;-72
2023/04/11 06:00:19;;;;;;;10.20;3.55;;;;;;;;;;5093359;28;20119;-72
2023/04/11 06:02:47;;;;;;;10.43;3.88;;;;;;;;;;5088995;28;20041;-72
2023/04/11 06:05:15;;;;;;;9.63;3.40;;;;;;;;;;5089742;28;20076;-73
2023/04/11 06:07:41;;;;;;;13.95;3.55;;;;;;;;;;5087487;28;20118;-72
2023/04/11 06:10:08;;;;;;;10.30;3.42;;;;;;;;;;5089967;28;20040;-72
2023/04/11 06:12:34;;;;;;;10.60;2.55;;;;;;;;;;5094475;28;20123;-73
2023/04/11 06:15:00;;;;;;;13.23;3.78;;;;;;;;;;5094539;28;20059;-73
2023/04/11 06:17:26;;;;;;;15.15;3.60;;;;;;;;;;5094267;28;20044;-73
2023/04/11 06:19:52;;;;;;;14.15;4.30;;;;;;;;;;5090120;28;20123;-73
2023/04/11 06:22:18;;;;;;;11.88;3.50;;;;;;;;;;5084346;28;20131;-73
2023/04/11 06:24:44;;;;;;;14.23;3.47;;;;;;;;;;5094236;28;20127;-73
2023/04/11 06:27:10;;;;;;;11.25;3.50;;;;;;;;;;5093993;28;20126;-72
2023/04/11 06:29:39;;;;;;;9.10;3.30;;;;;;;;;;5094002;28;20052;-72
2023/04/11 06:32:05;;;;;;;14.35;3.63;;;;;;;;;;5094054;28;20058;-74
2023/04/11 06:34:31;;;;;;;11.18;3.78;;;;;;;;;;5075836;28;20050;-74
2023/04/11 06:36:57;;;;;;;11.35;3.30;;;;;;;;;;5083182;28;20037;-75
2023/04/11 06:39:24;;;;;;;14.88;3.30;;;;;;;;;;5094155;28;20086;-72
2023/04/11 06:41:50;;;;;;;13.05;2.85;;;;;;;;;;5092774;28;20132;-73
2023/04/11 06:44:16;;;;;;;10.80;3.72;;;;;;;;;;5093867;28;20119;-76
2023/04/11 06:46:42;;;;;;;13.40;3.55;;;;;;;;;;5094093;28;20614;-75
2023/04/11 06:49:09;;;;;;;13.25;3.88;;;;;;;;;;5094078;28;20040;-74
2023/04/11 06:51:35;;;;;;;6.10;2.78;;;;;;;;;;5080622;28;20072;-74
2023/04/11 06:54:02;;;;;;;10.82;3.05;;;;;;;;;;5073400;28;20491;-74
2023/04/11 06:56:28;;;;;;;11.90;3.50;;;;;;;;;;5073759;28;20165;-74
2023/04/11 06:58:54;;;;;;;11.55;3.60;;;;;;;;;;5073060;28;20094;-74
2023/04/11 07:01:24;;;;;;;13.48;3.38;;;;;;;;;;5073856;28;20051;-74
2023/04/11 07:03:51;;;;;;;10.05;3.45;;;;;;;;;;5073826;28;20074;-74
2023/04/11 07:06:18;;;;;;;11.38;3.40;;;;;;;;;;5073714;28;20379;-74
2023/04/11 07:08:44;;;;;;;14.23;3.42;;;;;;;;;;5073679;28;20040;-74
2023/04/11 07:11:10;;;;;;;13.48;3.50;;;;;;;;;;5073554;28;20052;-74
2023/04/11 07:13:37;;;;;;;11.95;2.95;;;;;;;;;;5073855;28;20127;-75
2023/04/11 07:16:03;;;;;;;8.00;3.30;;;;;;;;;;5073594;28;20079;-75
2023/04/11 07:18:29;;;;;;;10.60;3.20;;;;;;;;;;5073343;28;20053;-75
2023/04/11 07:20:55;;;;;;;11.43;3.40;;;;;;;;;;5079239;28;20067;-74
2023/04/11 07:23:22;;;;;;;8.90;2.63;;;;;;;;;;5094519;28;20044;-74
2023/04/11 07:25:48;;;;;;;12.30;3.45;;;;;;;;;;5098578;28;20040;-74
2023/04/11 07:28:14;;;;;;;10.75;3.50;;;;;;;;;;5097986;28;20044;-75
2023/04/11 07:30:40;;;;;;;14.60;3.42;;;;;;;;;;5094203;28;20202;-74
2023/04/11 07:33:06;;;;;;;9.43;2.88;;;;;;;;;;5094188;28;20051;-74
2023/04/11 07:35:33;;;;;;;9.27;2.75;;;;;;;;;;5087834;28;20040;-74
2023/04/11 07:38:00;;;;;;;9.80;3.13;;;;;;;;;;5081606;28;20046;-74
2023/04/11 07:40:26;;;;;;;9.40;3.35;;;;;;;;;;5093168;28;20122;-74
2023/04/11 07:42:52;;;;;;;7.43;3.13;;;;;;;;;;5093447;28;20052;-74
2023/04/11 07:45:20;;;;;;;13.48;3.47;;;;;;;;;;5096019;28;20122;-74
2023/04/11 07:47:46;;;;;;;9.25;3.53;;;;;;;;;;5097297;28;20071;-74
2023/04/11 07:50:12;;;;;;;6.32;2.38;;;;;;;;;;5097214;28;20040;-74
2023/04/11 07:52:38;;;;;;;7.75;3.30;;;;;;;;;;5088532;28;20462;-74
2023/04/11 07:55:04;;;;;;;15.52;3.45;;;;;;;;;;5076817;28;20050;-74
2023/04/11 07:57:30;;;;;;;11.98;3.17;;;;;;;;;;5076970;28;20036;-74
2023/04/11 07:59:59;;;;;;;8.77;3.13;;;;;;;;;;5076923;28;20068;-74
2023/04/11 08:02:25;;;;;;;10.63;2.88;;;;;;;;;;5076909;28;20080;-74
2023/04/11 08:04:51;;;;;;;9.43;3.17;;;;;;;;;;5076704;28;20524;-74
2023/04/11 08:07:17;;;;;;;11.35;3.30;;;;;;;;;;5090484;28;20405;-74
2023/04/11 08:09:44;;;;;;;11.63;3.58;;;;;;;;;;5096777;28;20382;-74
2023/04/11 08:12:10;;;;;;;9.38;3.40;;;;;;;;;;5096982;28;20118;-74
2023/04/11 08:14:36;;;;;;;10.60;3.10;;;;;;;;;;5096936;28;20047;-74
2023/04/11 08:17:02;;;;;;;12.60;4.30;;;;;;;;;;5096583;28;20055;-74
2023/04/11 08:19:28;;;;;;;9.60;3.33;;;;;;;;;;5096677;28;20043;-74
2023/04/11 08:21:55;;;;;;;9.50;2.80;;;;;;;;;;5094812;28;20480;-73
2023/04/11 08:24:21;;;;;;;4.35;1.90;;;;;;;;;;5096844;28;20055;-74
2023/04/11 08:26:47;;;;;;;9.07;3.30;;;;;;;;;;5095567;28;20044;-73
2023/04/11 08:29:13;;;;;;;12.60;3.38;;;;;;;;;;5096201;28;20410;-72
2023/04/11 08:31:45;;;;;;;11.88;3.65;;;;;;;;;;5096556;28;20123;-73
2023/04/11 08:34:12;;;;;;;12.00;3.42;;;;;;;;;;5096858;28;20044;-73
2023/04/11 08:36:38;;;;;;;15.35;3.97;;;;;;;;;;5094796;28;20046;-73
2023/04/11 08:39:04;;;;;;;11.95;3.20;;;;;;;;;;5096722;28;20044;-73
2023/04/11 08:41:30;;;;;;;11.05;3.15;;;;;;;;;;5094800;28;20398;-73
2023/04/11 08:43:56;;;;;;;10.70;2.80;;;;;;;;;;5096491;28;20044;-74
2023/04/11 08:46:23;;;;;;;8.38;3.25;;;;;;;;;;5096277;28;20499;-74
2023/04/11 08:48:50;;;;;;;10.98;2.90;;;;;;;;;;5096397;28;20043;-74
2023/04/11 08:51:23;;;;;;;7.85;3.00;;;;;;;;;;5091772;28;20044;-73
2023/04/11 08:53:52;;;;;;;7.95;2.70;;;;;;;;;;5096199;28;20040;-73
2023/04/11 08:56:18;;;;;;;8.43;3.00;;;;;;;;;;5096036;28;20101;-75
2023/04/11 08:58:44;;;;;;;8.75;2.85;;;;;;;;;;5096302;28;20166;-73
2023/04/11 09:01:42;;;;;;;7.65;2.70;;;;;;;;;;5095995;28;20474;-74
2023/04/11 09:04:10;;;;;;;8.70;2.80;;;;;;;;;;5051026;28;20366;-74
2023/04/11 09:06:38;;;;;;;7.13;2.38;;;;;;;;;;5079370;28;20041;-74
2023/04/11 09:09:04;;;;;;;10.35;2.97;;;;;;;;;;5075430;28;20391;-74
2023/04/11 09:11:30;;;;;;;10.88;3.00;;;;;;;;;;5089352;28;20048;-74
2023/04/11 09:14:16;;;;;;;7.22;2.80;;;;;;;;;;5085279;28;20033;-75
2023/04/11 09:16:58;;;;;;;7.55;2.90;;;;;;;;;;5084996;28;20052;-74
2023/04/11 09:19:25;;;;;;;8.20;3.00;;;;;;;;;;5092105;28;20379;-74
2023/04/11 09:21:52;;;;;;;10.68;2.75;;;;;;;;;;5095286;28;20158;-74
2023/04/11 09:24:18;;;;;;;10.52;3.25;;;;;;;;;;5095582;28;20040;-74
2023/04/11 09:26:44;;;;;;;11.88;3.15;;;;;;;;;;5095165;28;20500;-74
2023/04/11 09:29:11;;;;;;;12.00;3.10;;;;;;;;;;5095237;28;20044;-74
2023/04/11 09:31:41;;;;;;;11.15;2.80;;;;;;;;;;5095266;28;20479;-74
2023/04/11 09:34:07;;;;;;;12.32;2.67;;;;;;;;;;5075186;28;20072;-74
2023/04/11 09:36:33;;;;;;;11.95;3.40;;;;;;;;;;5075138;28;20119;-74
2023/04/11 09:39:01;;;;;;;11.88;4.63;;;;;;;;;;5074725;28;20045;-75
2023/04/11 09:41:35;;;;;;;11.77;3.13;;;;;;;;;;5073510;28;20417;-73
2023/04/11 09:44:01;;;;;;;8.93;2.70;;;;;;;;;;5091877;28;20039;-73
2023/04/11 09:46:27;;;;;;;11.48;3.45;;;;;;;;;;5093315;28;20043;-73
2023/04/11 09:48:54;;;;;;;12.57;3.38;;;;;;;;;;5082098;28;20089;-73
2023/04/11 09:51:20;;;;;;;7.25;2.40;;;;;;;;;;5094729;28;20460;-73
2023/04/11 09:53:46;;;;;;;5.03;1.92;;;;;;;;;;5093728;28;20432;-73
2023/04/11 09:56:13;;;;;;;11.73;3.03;;;;;;;;;;5094752;28;20048;-73
2023/04/11 09:58:39;;;;;;;6.75;2.47;;;;;;;;;;5095012;28;20036;-74
2023/04/11 10:01:06;;;;;;;10.52;2.63;;;;;;;;;;5094804;28;20490;-74
2023/04/11 10:03:35;;;;;;;11.13;2.78;;;;;;;;;;5094795;28;20051;-74
2023/04/11 10:06:03;;;;;;;9.00;3.10;;;;;;;;;;5094799;28;20054;-73
2023/04/11 10:08:33;;;;;;;11.45;2.75;;;;;;;;;;5093632;28;20040;-73
2023/04/11 10:10:59;;;;;;;8.70;2.80;;;;;;;;;;5093869;28;20512;-73
2023/04/11 10:13:34;;;;;;;10.55;2.60;;;;;;;;;;5094462;28;20036;-73
2023/04/11 10:16:17;;;;;;;7.07;2.53;;;;;;;;;;5093157;28;20050;-74
2023/04/11 10:18:55;;;;;;;9.40;3.00;;;;;;;;;;5094106;28;20048;-74
2023/04/11 10:21:33;;;;;;;9.40;3.42;;;;;;;;;;5094599;28;20048;-74
2023/04/11 10:24:16;;;;;;;9.73;2.67;;;;;;;;;;5094513;28;20044;-74
2023/04/11 10:26:45;;;;;;;8.38;2.65;;;;;;;;;;5088041;28;20041;-74
2023/04/11 10:29:26;;;;;;;7.82;2.70;;;;;;;;;;5072979;28;20048;-74
2023/04/11 10:32:17;;;;;;;11.10;2.85;;;;;;;;;;5075648;28;20075;-74
2023/04/11 10:34:49;;;;;;;7.18;2.75;;;;;;;;;;5072526;28;20056;-74
2023/04/11 10:37:31;;;;;;;8.98;2.55;;;;;;;;;;5057825;28;20055;-73
2023/04/11 10:39:59;;;;;;;6.90;2.80;;;;;;;;;;5074162;28;20044;-73
2023/04/11 10:42:35;;;;;;;6.00;2.25;;;;;;;;;;5074007;28;20067;-73
2023/04/11 10:45:20;;;;;;;9.48;2.30;;;;;;;;;;5092098;28;20043;-73
2023/04/11 10:47:53;;;;;;;13.82;2.85;;;;;;;;;;5094052;28;20122;-73
2023/04/11 10:50:25;;;;;;;8.52;3.00;;;;;;;;;;5091205;28;20043;-75
2023/04/11 10:52:55;;;;;;;11.27;3.08;;;;;;;;;;5084659;28;20052;-73
2023/04/11 10:55:21;;;;;;;12.65;3.17;;;;;;;;;;5081106;28;20166;-73
2023/04/11 10:58:06;;;;;;;12.25;3.58;;;;;;;;;;5080696;28;20076;-73
2023/04/11 11:00:54;;;;;;;7.47;2.72;;;;;;;;;;5080175;28;20094;-73
2023/04/11 11:03:24;;;;;;;6.00;2.10;;;;;;;;;;5078668;28;20059;-73
2023/04/11 11:05:58;;;;;;;5.88;2.30;;;;;;;;;;5093959;28;20040;-73
2023/04/11 11:08:30;;;;;;;7.03;2.63;;;;;;;;;;5093562;28;20043;-74
2023/04/11 11:11:01;;;;;;;12.85;3.60;;;;;;;;;;5093783;28;20474;-74
2023/04/11 11:13:38;;;;;;;9.57;2.75;;;;;;;;;;5086058;28;20120;-73
2023/04/11 11:16:05;;;;;;;14.63;3.50;;;;;;;;;;5090277;28;20528;-73
2023/04/11 11:18:32;;;;;;;8.38;2.72;;;;;;;;;;5092299;28;20063;-75
2023/04/11 11:20:58;;;;;;;10.48;2.80;;;;;;;;;;5096736;28;20044;-74
2023/04/11 11:23:24;;;;;;;11.55;2.88;;;;;;;;;;5096794;28;20127;-74
2023/04/11 11:25:57;;;;;;;10.25;2.75;;;;;;;;;;5090205;28;20119;-74
2023/04/11 11:28:24;;;;;;;9.27;2.85;;;;;;;;;;5095185;28;20040;-73
2023/04/11 11:30:51;;;;;;;8.02;2.60;;;;;;;;;;5095821;28;20089;-73
2023/04/11 11:33:25;;;;;;;9.45;2.92;;;;;;;;;;5096124;28;20040;-74
2023/04/11 11:35:59;;;;;;;7.80;2.95;;;;;;;;;;5096085;28;20055;-74
2023/04/11 11:38:26;;;;;;;11.18;3.20;;;;;;;;;;5097936;28;20036;-74
2023/04/11 11:40:53;;;;;;;10.38;2.75;;;;;;;;;;5096828;28;20036;-74
2023/04/11 11:43:19;;;;;;;8.63;3.22;;;;;;;;;;5091753;28;20076;-74
2023/04/11 11:45:45;;;;;;;9.30;3.25;;;;;;;;;;5077348;28;20032;-74
2023/04/11 11:48:22;;;;;;;7.38;2.97;;;;;;;;;;5083431;28;20044;-74
2023/04/11 11:50:54;;;;;;;12.55;3.15;;;;;;;;;;5086796;28;20479;-74
2023/04/11 11:53:21;;;;;;;8.75;3.30;;;;;;;;;;5079698;28;20045;-74
2023/04/11 11:55:47;;;;;;;12.88;3.22;;;;;;;;;;5087327;28;20059;-75
2023/04/11 11:58:13;;;;;;;9.80;3.28;;;;;;;;;;5079601;28;20048;-75
2023/04/11 12:00:40;;;;;;;8.13;3.25;;;;;;;;;;5077050;28;20506;-75
2023/04/11 12:03:08;;;;;;;11.52;3.85;;;;;;;;;;5095947;28;20125;-75
2023/04/11 12:05:35;;;;;;;14.05;3.20;;;;;;;;;;5087806;28;20048;-75
2023/04/11 12:08:06;;;;;;;10.95;2.80;;;;;;;;;;5078264;28;20045;-75
2023/04/11 12:10:36;;;;;;;8.43;3.15;;;;;;;;;;5097224;28;20544;-75
2023/04/11 12:13:02;;;;;;;12.43;3.40;;;;;;;;;;5097158;28;20056;-75
2023/04/11 12:15:28;;;;;;;8.00;2.80;;;;;;;;;;5096580;28;20052;-73
2023/04/11 12:17:54;;;;;;;9.35;2.70;;;;;;;;;;5086732;28;20474;-73
2023/04/11 12:20:25;;;;;;;6.72;2.80;;;;;;;;;;5094476;28;20040;-72
2023/04/11 12:22:51;;;;;;;11.23;3.28;;;;;;;;;;5095553;28;20052;-73
2023/04/11 12:25:17;;;;;;;7.50;2.40;;;;;;;;;;5090840;28;20060;-73
2023/04/11 12:27:44;;;;;;;9.68;3.97;;;;;;;;;;5080955;28;20397;-73
2023/04/11 12:30:11;;;;;;;11.82;2.78;;;;;;;;;;5092905;28;20036;-74
2023/04/11 12:32:37;;;;;;;6.47;3.00;;;;;;;;;;5095061;28;20433;-74
2023/04/11 12:35:04;;;;;;;11.43;3.30;;;;;;;;;;5095087;28;20039;-74
2023/04/11 12:37:31;;;;;;;11.50;2.70;;;;;;;;;;5080443;28;20040;-78
2023/04/11 12:39:57;;;;;;;9.60;2.60;;;;;;;;;;5096219;28;20040;-74
2023/04/11 12:42:23;;;;;;;11.15;3.00;;;;;;;;;;5087760;28;20044;-74
2023/04/11 12:44:49;;;;;;;10.88;3.20;;;;;;;;;;5076066;28;20045;-74
2023/04/11 12:47:16;;;;;;;6.57;2.65;;;;;;;;;;5076476;28;20052;-75
2023/04/11 12:49:42;;;;;;;14.75;3.30;;;;;;;;;;5083968;28;20093;-75
2023/04/11 12:52:08;;;;;;;8.70;2.60;;;;;;;;;;5094306;28;20044;-74
2023/04/11 12:54:34;;;;;;;7.45;2.50;;;;;;;;;;5060779;28;20133;-74
2023/04/11 12:57:01;;;;;;;8.95;2.85;;;;;;;;;;5094916;28;20047;-75
2023/04/11 12:59:27;;;;;;;9.15;2.53;;;;;;;;;;5086137;28;20048;-75
2023/04/11 13:01:53;;;;;;;10.88;2.88;;;;;;;;;;5080239;28;20421;-74
2023/04/11 13:04:19;;;;;;;9.43;3.22;;;;;;;;;;5080717;28;20120;-75
2023/04/11 13:06:46;;;;;;;13.65;3.25;;;;;;;;;;5084625;28;20081;-76
2023/04/11 13:09:12;;;;;;;11.48;3.03;;;;;;;;;;5077971;28;20102;-74
2023/04/11 13:11:38;;;;;;;11.55;3.00;;;;;;;;;;5088411;28;20076;-74
2023/04/11 13:14:04;;;;;;;9.02;2.88;;;;;;;;;;5094196;28;20051;-74
2023/04/11 13:16:30;;;;;;;9.85;3.00;;;;;;;;;;5088806;28;20043;-74
2023/04/11 13:18:57;;;;;;;7.93;2.70;;;;;;;;;;5095630;28;20123;-74
2023/04/11 13:21:23;;;;;;;7.32;2.63;;;;;;;;;;5092573;28;20068;-74
2023/04/11 13:23:50;;;;;;;10.60;2.97;;;;;;;;;;5093033;28;20040;-74
2023/04/11 13:26:16;;;;;;;6.43;2.38;;;;;;;;;;5075500;28;20486;-74
2023/04/11 13:28:42;;;;;;;11.00;3.00;;;;;;;;;;5085623;28;20035;-74
2023/04/11 13:31:12;;;;;;;8.50;2.97;;;;;;;;;;5094703;28;20367;-74
2023/04/11 13:33:43;;;;;;;7.40;2.67;;;;;;;;;;5076646;28;20053;-74
2023/04/11 13:36:10;;;;;;;10.02;3.05;;;;;;;;;;5075814;28;20082;-74
2023/04/11 13:38:36;;;;;;;8.13;3.08;;;;;;;;;;5075000;28;20505;-74
2023/04/11 13:41:02;;;;;;;12.27;2.85;;;;;;;;;;5080249;28;20044;-74
2023/04/11 13:43:28;;;;;;;13.45;2.75;;;;;;;;;;5099130;28;20036;-74
2023/04/11 13:45:54;;;;;;;12.95;3.13;;;;;;;;;;5094732;28;20387;-74
2023/04/11 13:48:20;;;;;;;6.63;2.65;;;;;;;;;;5081585;28;20036;-74
2023/04/11 13:50:46;;;;;;;9.93;3.20;;;;;;;;;;5095148;28;20046;-74
2023/04/11 13:53:12;;;;;;;7.63;2.45;;;;;;;;;;5092317;28;20115;-74
2023/04/11 13:55:38;;;;;;;8.13;2.40;;;;;;;;;;5093533;28;20036;-75
2023/04/11 13:58:04;;;;;;;8.48;2.80;;;;;;;;;;5094399;28;20075;-74
2023/04/11 14:00:30;;;;;;;11.32;2.78;;;;;;;;;;5091328;28;20487;-74
2023/04/11 14:02:56;;;;;;;8.77;3.00;;;;;;;;;;5074325;28;20522;-74
2023/04/11 14:05:24;;;;;;;10.38;2.80;;;;;;;;;;5094332;28;20065;-74
2023/04/11 14:07:50;;;;;;;11.13;3.10;;;;;;;;;;5092255;28;20044;-74
2023/04/11 14:10:16;;;;;;;9.45;3.00;;;;;;;;;;5095072;28;20063;-74
2023/04/11 14:12:42;;;;;;;9.85;3.08;;;;;;;;;;5093987;28;20067;-73
2023/04/11 14:15:09;;;;;;;9.82;2.95;;;;;;;;;;5084232;28;20428;-74
2023/04/11 14:17:35;;;;;;;9.93;2.47;;;;;;;;;;5089451;28;20048;-74
2023/04/11 14:20:02;;;;;;;8.73;2.80;;;;;;;;;;5087649;28;20048;-74
2023/04/11 14:22:28;;;;;;;8.43;2.40;;;;;;;;;;5076531;28;20050;-74
2023/04/11 14:25:04;;;;;;;8.85;2.50;;;;;;;;;;5079625;28;20115;-74
2023/04/11 14:27:33;;;;;;;7.55;2.40;;;;;;;;;;5077238;28;20470;-74
2023/04/11 14:29:59;;;;;;;10.80;2.78;;;;;;;;;;5094119;28;20058;-74
2023/04/11 14:32:25;;;;;;;10.52;2.53;;;;;;;;;;5082771;28;20394;-74
2023/04/11 14:34:51;;;;;;;7.80;2.20;;;;;;;;;;5074020;28;20036;-74
2023/04/11 14:37:17;;;;;;;9.82;2.50;;;;;;;;;;5076696;28;20091;-74
2023/04/11 14:39:44;;;;;;;25.70;2.60;;;;;;;;;;5092677;28;20068;-74